<?xml version="1.0" encoding="UTF-8" standalone="no" ?><gpx xmlns="http://www.topografix.com/GPX/1/1" xmlns:gpxx="http://www.garmin.com/xmlschemas/GpxExtensions/v3" xmlns:wptx1="http://www.garmin.com/xmlschemas/WaypointExtension/v1" xmlns:gpxtpx="http://www.garmin.com/xmlschemas/TrackPointExtension/v1" creator="Dakota 20" version="1.1" xmlns:xsi="http://www.w3.org/2001/XMLSchema-instance" xsi:schemaLocation="http://www.topografix.com/GPX/1/1 http://www.topografix.com/GPX/1/1/gpx.xsd http://www.garmin.com/xmlschemas/GpxExtensions/v3 http://www8.garmin.com/xmlschemas/GpxExtensionsv3.xsd http://www.garmin.com/xmlschemas/WaypointExtension/v1 http://www8.garmin.com/xmlschemas/WaypointExtensionv1.xsd http://www.garmin.com/xmlschemas/TrackPointExtension/v1 http://www.garmin.com/xmlschemas/TrackPointExtensionv1.xsd"><metadata><link href="http://www.garmin.com"><text>Garmin International</text></link><time>2017-02-15T19:23:40Z</time></metadata><trk><name>Current Track: 15 FEB 2017 10:07</name><extensions><gpxx:TrackExtension><gpxx:DisplayColor>Cyan</gpxx:DisplayColor></gpxx:TrackExtension></extensions><trkseg><trkpt lat="51.8433939479" lon="-2.0964117162"><ele>236.62</ele><time>2017-02-15T10:07:47Z</time></trkpt><trkpt lat="51.8434080295" lon="-2.0964224450"><ele>237.10</ele><time>2017-02-15T10:08:10Z</time></trkpt><trkpt lat="51.8434022460" lon="-2.0964203496"><ele>238.06</ele><time>2017-02-15T10:08:34Z</time></trkpt><trkpt lat="51.8434709776" lon="-2.0962810423"><ele>237.10</ele><time>2017-02-15T10:08:51Z</time></trkpt><trkpt lat="51.8435679562" lon="-2.0961260609"><ele>236.62</ele><time>2017-02-15T10:09:03Z</time></trkpt><trkpt lat="51.8436262105" lon="-2.0960405655"><ele>237.10</ele><time>2017-02-15T10:09:15Z</time></trkpt><trkpt lat="51.8436328322" lon="-2.0960201137"><ele>237.58</ele><time>2017-02-15T10:09:36Z</time></trkpt><trkpt lat="51.8436369393" lon="-2.0959950518"><ele>237.10</ele><time>2017-02-15T10:09:53Z</time></trkpt><trkpt lat="51.8437652662" lon="-2.0959993266"><ele>237.10</ele><time>2017-02-15T10:10:06Z</time></trkpt><trkpt lat="51.8438427988" lon="-2.0960578322"><ele>237.10</ele><time>2017-02-15T10:10:19Z</time></trkpt><trkpt lat="51.8438891508" lon="-2.0962502807"><ele>233.74</ele><time>2017-02-15T10:10:37Z</time></trkpt><trkpt lat="51.8439231813" lon="-2.0963881630"><ele>233.74</ele><time>2017-02-15T10:10:53Z</time></trkpt><trkpt lat="51.8439175654" lon="-2.0965905022"><ele>233.74</ele><time>2017-02-15T10:11:08Z</time></trkpt><trkpt lat="51.8438958563" lon="-2.0967518538"><ele>233.74</ele><time>2017-02-15T10:11:23Z</time></trkpt><trkpt lat="51.8438792601" lon="-2.0968469884"><ele>233.26</ele><time>2017-02-15T10:11:42Z</time></trkpt><trkpt lat="51.8438326567" lon="-2.0970972721"><ele>234.70</ele><time>2017-02-15T10:11:57Z</time></trkpt><trkpt lat="51.8437822815" lon="-2.0972886309"><ele>234.22</ele><time>2017-02-15T10:12:12Z</time></trkpt><trkpt lat="51.8436822016" lon="-2.0975010283"><ele>234.22</ele><time>2017-02-15T10:12:29Z</time></trkpt><trkpt lat="51.8436420523" lon="-2.0976389945"><ele>234.70</ele><time>2017-02-15T10:12:39Z</time></trkpt><trkpt lat="51.8436252046" lon="-2.0977430139"><ele>235.18</ele><time>2017-02-15T10:12:46Z</time></trkpt><trkpt lat="51.8435921799" lon="-2.0979238115"><ele>235.66</ele><time>2017-02-15T10:13:02Z</time></trkpt><trkpt lat="51.8435459957" lon="-2.0981267374"><ele>235.18</ele><time>2017-02-15T10:13:17Z</time></trkpt><trkpt lat="51.8434960395" lon="-2.0983425714"><ele>236.14</ele><time>2017-02-15T10:13:33Z</time></trkpt><trkpt lat="51.8434532918" lon="-2.0985568129"><ele>235.66</ele><time>2017-02-15T10:13:49Z</time></trkpt><trkpt lat="51.8434312474" lon="-2.0987412147"><ele>235.66</ele><time>2017-02-15T10:14:04Z</time></trkpt><trkpt lat="51.8433916848" lon="-2.0989868883"><ele>234.70</ele><time>2017-02-15T10:14:21Z</time></trkpt><trkpt lat="51.8433449976" lon="-2.0992073324"><ele>234.22</ele><time>2017-02-15T10:14:36Z</time></trkpt><trkpt lat="51.8433316704" lon="-2.0994550176"><ele>234.22</ele><time>2017-02-15T10:14:53Z</time></trkpt><trkpt lat="51.8433532957" lon="-2.0995060634"><ele>235.66</ele><time>2017-02-15T10:15:13Z</time></trkpt><trkpt lat="51.8433968816" lon="-2.0997757092"><ele>237.10</ele><time>2017-02-15T10:15:31Z</time></trkpt><trkpt lat="51.8433418963" lon="-2.1001200378"><ele>237.10</ele><time>2017-02-15T10:15:52Z</time></trkpt><trkpt lat="51.8433458358" lon="-2.1002264880"><ele>239.02</ele><time>2017-02-15T10:16:13Z</time></trkpt><trkpt lat="51.8432867434" lon="-2.1006557252"><ele>240.47</ele><time>2017-02-15T10:16:33Z</time></trkpt><trkpt lat="51.8432184309" lon="-2.1008271351"><ele>240.95</ele><time>2017-02-15T10:16:52Z</time></trkpt><trkpt lat="51.8432201911" lon="-2.1010972001"><ele>242.39</ele><time>2017-02-15T10:17:11Z</time></trkpt><trkpt lat="51.8431517109" lon="-2.1012810152"><ele>242.87</ele><time>2017-02-15T10:17:31Z</time></trkpt><trkpt lat="51.8430905230" lon="-2.1015044767"><ele>242.87</ele><time>2017-02-15T10:17:47Z</time></trkpt><trkpt lat="51.8430156726" lon="-2.1016560216"><ele>242.87</ele><time>2017-02-15T10:18:07Z</time></trkpt><trkpt lat="51.8429398164" lon="-2.1017629746"><ele>242.39</ele><time>2017-02-15T10:18:28Z</time></trkpt><trkpt lat="51.8428741023" lon="-2.1019461192"><ele>242.87</ele><time>2017-02-15T10:18:43Z</time></trkpt><trkpt lat="51.8428570870" lon="-2.1022051200"><ele>244.79</ele><time>2017-02-15T10:19:01Z</time></trkpt><trkpt lat="51.8428315222" lon="-2.1024134941"><ele>245.27</ele><time>2017-02-15T10:19:18Z</time></trkpt><trkpt lat="51.8428358808" lon="-2.1025844011"><ele>244.79</ele><time>2017-02-15T10:19:35Z</time></trkpt><trkpt lat="51.8427670654" lon="-2.1027348563"><ele>244.31</ele><time>2017-02-15T10:19:51Z</time></trkpt><trkpt lat="51.8427727651" lon="-2.1028814558"><ele>245.75</ele><time>2017-02-15T10:20:11Z</time></trkpt><trkpt lat="51.8427425064" lon="-2.1030383650"><ele>246.72</ele><time>2017-02-15T10:20:28Z</time></trkpt><trkpt lat="51.8426935561" lon="-2.1032795124"><ele>246.72</ele><time>2017-02-15T10:20:43Z</time></trkpt><trkpt lat="51.8426678237" lon="-2.1034498326"><ele>246.72</ele><time>2017-02-15T10:20:58Z</time></trkpt><trkpt lat="51.8426192086" lon="-2.1036026347"><ele>247.68</ele><time>2017-02-15T10:21:12Z</time></trkpt><trkpt lat="51.8425583560" lon="-2.1038279403"><ele>248.64</ele><time>2017-02-15T10:21:28Z</time></trkpt><trkpt lat="51.8424943183" lon="-2.1040811576"><ele>248.64</ele><time>2017-02-15T10:21:45Z</time></trkpt><trkpt lat="51.8424427696" lon="-2.1042906214"><ele>248.64</ele><time>2017-02-15T10:22:01Z</time></trkpt><trkpt lat="51.8424256705" lon="-2.1043462772"><ele>248.64</ele><time>2017-02-15T10:22:17Z</time></trkpt><trkpt lat="51.8424188811" lon="-2.1043940540"><ele>248.16</ele><time>2017-02-15T10:22:20Z</time></trkpt><trkpt lat="51.8424121756" lon="-2.1045193635"><ele>249.60</ele><time>2017-02-15T10:22:27Z</time></trkpt><trkpt lat="51.8423581123" lon="-2.1047918592"><ele>250.56</ele><time>2017-02-15T10:22:43Z</time></trkpt><trkpt lat="51.8423371576" lon="-2.1049255505"><ele>249.60</ele><time>2017-02-15T10:22:52Z</time></trkpt><trkpt lat="51.8423196394" lon="-2.1051350143"><ele>250.56</ele><time>2017-02-15T10:23:08Z</time></trkpt><trkpt lat="51.8423141073" lon="-2.1052064281"><ele>252.00</ele><time>2017-02-15T10:23:22Z</time></trkpt><trkpt lat="51.8423130177" lon="-2.1052209288"><ele>252.00</ele><time>2017-02-15T10:23:29Z</time></trkpt><trkpt lat="51.8423148617" lon="-2.1054127906"><ele>252.96</ele><time>2017-02-15T10:23:44Z</time></trkpt><trkpt lat="51.8423656560" lon="-2.1056114417"><ele>252.48</ele><time>2017-02-15T10:24:00Z</time></trkpt><trkpt lat="51.8424378242" lon="-2.1058141161"><ele>254.89</ele><time>2017-02-15T10:24:17Z</time></trkpt><trkpt lat="51.8424631376" lon="-2.1058558580"><ele>254.89</ele><time>2017-02-15T10:24:21Z</time></trkpt><trkpt lat="51.8424980063" lon="-2.1059139445"><ele>255.85</ele><time>2017-02-15T10:24:27Z</time></trkpt><trkpt lat="51.8425684981" lon="-2.1060230769"><ele>256.33</ele><time>2017-02-15T10:24:39Z</time></trkpt><trkpt lat="51.8426106591" lon="-2.1061743703"><ele>258.25</ele><time>2017-02-15T10:24:53Z</time></trkpt><trkpt lat="51.8426172808" lon="-2.1061843447"><ele>258.25</ele><time>2017-02-15T10:24:54Z</time></trkpt><trkpt lat="51.8426838331" lon="-2.1063622087"><ele>261.14</ele><time>2017-02-15T10:25:09Z</time></trkpt><trkpt lat="51.8427281734" lon="-2.1065394022"><ele>262.10</ele><time>2017-02-15T10:25:24Z</time></trkpt><trkpt lat="51.8427627068" lon="-2.1066606045"><ele>263.54</ele><time>2017-02-15T10:25:32Z</time></trkpt><trkpt lat="51.8427843321" lon="-2.1067426633"><ele>263.54</ele><time>2017-02-15T10:25:43Z</time></trkpt><trkpt lat="51.8427917920" lon="-2.1068377979"><ele>263.54</ele><time>2017-02-15T10:25:56Z</time></trkpt><trkpt lat="51.8428057898" lon="-2.1071018279"><ele>263.06</ele><time>2017-02-15T10:26:13Z</time></trkpt><trkpt lat="51.8427928817" lon="-2.1072723996"><ele>264.50</ele><time>2017-02-15T10:26:27Z</time></trkpt><trkpt lat="51.8428087234" lon="-2.1074197534"><ele>265.46</ele><time>2017-02-15T10:26:40Z</time></trkpt><trkpt lat="51.8428088073" lon="-2.1074211784"><ele>265.46</ele><time>2017-02-15T10:26:44Z</time></trkpt><trkpt lat="51.8428176083" lon="-2.1074573044"><ele>268.35</ele><time>2017-02-15T10:26:53Z</time></trkpt><trkpt lat="51.8428133335" lon="-2.1075036563"><ele>266.90</ele><time>2017-02-15T10:27:11Z</time></trkpt><trkpt lat="51.8428186141" lon="-2.1075269580"><ele>266.42</ele><time>2017-02-15T10:27:26Z</time></trkpt><trkpt lat="51.8428816460" lon="-2.1076697856"><ele>267.86</ele><time>2017-02-15T10:27:41Z</time></trkpt><trkpt lat="51.8429405708" lon="-2.1078266948"><ele>267.38</ele><time>2017-02-15T10:27:54Z</time></trkpt><trkpt lat="51.8430042733" lon="-2.1080061514"><ele>268.83</ele><time>2017-02-15T10:28:10Z</time></trkpt><trkpt lat="51.8430631142" lon="-2.1081783995"><ele>268.83</ele><time>2017-02-15T10:28:27Z</time></trkpt><trkpt lat="51.8431283254" lon="-2.1084158588"><ele>269.31</ele><time>2017-02-15T10:28:45Z</time></trkpt><trkpt lat="51.8431622721" lon="-2.1086902823"><ele>267.38</ele><time>2017-02-15T10:29:05Z</time></trkpt><trkpt lat="51.8431722466" lon="-2.1088082157"><ele>265.46</ele><time>2017-02-15T10:29:18Z</time></trkpt><trkpt lat="51.8431781977" lon="-2.1088337805"><ele>265.46</ele><time>2017-02-15T10:29:23Z</time></trkpt><trkpt lat="51.8432268966" lon="-2.1090367064"><ele>263.54</ele><time>2017-02-15T10:29:39Z</time></trkpt><trkpt lat="51.8432497792" lon="-2.1091023367"><ele>264.02</ele><time>2017-02-15T10:29:44Z</time></trkpt><trkpt lat="51.8433160800" lon="-2.1092846431"><ele>264.02</ele><time>2017-02-15T10:30:00Z</time></trkpt><trkpt lat="51.8433451653" lon="-2.1093573142"><ele>264.50</ele><time>2017-02-15T10:30:13Z</time></trkpt><trkpt lat="51.8433559779" lon="-2.1093444061"><ele>264.50</ele><time>2017-02-15T10:30:31Z</time></trkpt><trkpt lat="51.8433742505" lon="-2.1093252115"><ele>264.02</ele><time>2017-02-15T10:30:41Z</time></trkpt><trkpt lat="51.8433888350" lon="-2.1093069389"><ele>264.50</ele><time>2017-02-15T10:30:43Z</time></trkpt><trkpt lat="51.8434287328" lon="-2.1090569068"><ele>265.94</ele><time>2017-02-15T10:30:58Z</time></trkpt><trkpt lat="51.8434324209" lon="-2.1090417355"><ele>264.98</ele><time>2017-02-15T10:30:59Z</time></trkpt><trkpt lat="51.8434416410" lon="-2.1090122312"><ele>264.02</ele><time>2017-02-15T10:31:01Z</time></trkpt><trkpt lat="51.8434713129" lon="-2.1088874247"><ele>265.46</ele><time>2017-02-15T10:31:11Z</time></trkpt><trkpt lat="51.8435029127" lon="-2.1087509673"><ele>266.90</ele><time>2017-02-15T10:31:22Z</time></trkpt><trkpt lat="51.8435152341" lon="-2.1086103190"><ele>270.27</ele><time>2017-02-15T10:31:34Z</time></trkpt><trkpt lat="51.8435148988" lon="-2.1085536573"><ele>269.79</ele><time>2017-02-15T10:31:38Z</time></trkpt><trkpt lat="51.8435285613" lon="-2.1084368136"><ele>272.67</ele><time>2017-02-15T10:31:48Z</time></trkpt><trkpt lat="51.8435328361" lon="-2.1083389129"><ele>272.19</ele><time>2017-02-15T10:32:03Z</time></trkpt><trkpt lat="51.8435340095" lon="-2.1083450317"><ele>273.63</ele><time>2017-02-15T10:32:06Z</time></trkpt><trkpt lat="51.8435366917" lon="-2.1083133481"><ele>270.75</ele><time>2017-02-15T10:32:25Z</time></trkpt><trkpt lat="51.8435707223" lon="-2.1081679221"><ele>271.71</ele><time>2017-02-15T10:32:41Z</time></trkpt><trkpt lat="51.8435843010" lon="-2.1080929041"><ele>271.71</ele><time>2017-02-15T10:32:47Z</time></trkpt><trkpt lat="51.8435991369" lon="-2.1079166327"><ele>271.23</ele><time>2017-02-15T10:33:00Z</time></trkpt><trkpt lat="51.8436355144" lon="-2.1077714581"><ele>272.19</ele><time>2017-02-15T10:33:11Z</time></trkpt><trkpt lat="51.8436499313" lon="-2.1076669358"><ele>270.27</ele><time>2017-02-15T10:33:18Z</time></trkpt><trkpt lat="51.8436558824" lon="-2.1074834559"><ele>270.27</ele><time>2017-02-15T10:33:32Z</time></trkpt><trkpt lat="51.8436888233" lon="-2.1072754171"><ele>268.83</ele><time>2017-02-15T10:33:48Z</time></trkpt><trkpt lat="51.8436911702" lon="-2.1070811246"><ele>269.31</ele><time>2017-02-15T10:34:02Z</time></trkpt><trkpt lat="51.8437470775" lon="-2.1068761032"><ele>269.31</ele><time>2017-02-15T10:34:21Z</time></trkpt><trkpt lat="51.8438154738" lon="-2.1066540666"><ele>268.83</ele><time>2017-02-15T10:34:43Z</time></trkpt><trkpt lat="51.8438728899" lon="-2.1064539067"><ele>267.86</ele><time>2017-02-15T10:34:58Z</time></trkpt><trkpt lat="51.8439210858" lon="-2.1062429342"><ele>270.27</ele><time>2017-02-15T10:35:14Z</time></trkpt><trkpt lat="51.8439251091" lon="-2.1062305290"><ele>270.27</ele><time>2017-02-15T10:35:15Z</time></trkpt><trkpt lat="51.8440217525" lon="-2.1060721111"><ele>270.75</ele><time>2017-02-15T10:35:30Z</time></trkpt><trkpt lat="51.8441432063" lon="-2.1059251763"><ele>270.75</ele><time>2017-02-15T10:35:48Z</time></trkpt><trkpt lat="51.8441509176" lon="-2.1059233323"><ele>271.23</ele><time>2017-02-15T10:35:49Z</time></trkpt><trkpt lat="51.8442335632" lon="-2.1058776509"><ele>271.23</ele><time>2017-02-15T10:36:04Z</time></trkpt><trkpt lat="51.8443109281" lon="-2.1058104280"><ele>269.79</ele><time>2017-02-15T10:36:20Z</time></trkpt><trkpt lat="51.8443190586" lon="-2.1057995316"><ele>270.75</ele><time>2017-02-15T10:36:40Z</time></trkpt><trkpt lat="51.8443719484" lon="-2.1058048122"><ele>268.83</ele><time>2017-02-15T10:36:56Z</time></trkpt><trkpt lat="51.8443730380" lon="-2.1058111824"><ele>268.83</ele><time>2017-02-15T10:37:26Z</time></trkpt><trkpt lat="51.8443743791" lon="-2.1058119368"><ele>270.27</ele><time>2017-02-15T10:37:36Z</time></trkpt><trkpt lat="51.8444185518" lon="-2.1057039779"><ele>268.35</ele><time>2017-02-15T10:37:50Z</time></trkpt><trkpt lat="51.8445073999" lon="-2.1054631658"><ele>267.86</ele><time>2017-02-15T10:38:09Z</time></trkpt><trkpt lat="51.8446061388" lon="-2.1053632535"><ele>267.38</ele><time>2017-02-15T10:38:25Z</time></trkpt><trkpt lat="51.8446783908" lon="-2.1052148100"><ele>265.46</ele><time>2017-02-15T10:38:40Z</time></trkpt><trkpt lat="51.8448034488" lon="-2.1050852258"><ele>263.54</ele><time>2017-02-15T10:39:00Z</time></trkpt><trkpt lat="51.8448346294" lon="-2.1050224453"><ele>263.06</ele><time>2017-02-15T10:39:18Z</time></trkpt><trkpt lat="51.8449383136" lon="-2.1050006524"><ele>262.10</ele><time>2017-02-15T10:39:33Z</time></trkpt><trkpt lat="51.8450704962" lon="-2.1050002333"><ele>261.14</ele><time>2017-02-15T10:39:50Z</time></trkpt><trkpt lat="51.8451036047" lon="-2.1050493512"><ele>261.62</ele><time>2017-02-15T10:40:06Z</time></trkpt><trkpt lat="51.8451528903" lon="-2.1050064359"><ele>261.14</ele><time>2017-02-15T10:40:12Z</time></trkpt><trkpt lat="51.8452797085" lon="-2.1048874129"><ele>262.58</ele><time>2017-02-15T10:40:26Z</time></trkpt><trkpt lat="51.8453601748" lon="-2.1047806274"><ele>263.06</ele><time>2017-02-15T10:40:40Z</time></trkpt><trkpt lat="51.8454020005" lon="-2.1047374606"><ele>263.06</ele><time>2017-02-15T10:40:56Z</time></trkpt><trkpt lat="51.8454040121" lon="-2.1047305875"><ele>262.10</ele><time>2017-02-15T10:40:58Z</time></trkpt><trkpt lat="51.8454051018" lon="-2.1047289111"><ele>262.58</ele><time>2017-02-15T10:40:59Z</time></trkpt><trkpt lat="51.8454539683" lon="-2.1046901029"><ele>262.58</ele><time>2017-02-15T10:41:03Z</time></trkpt><trkpt lat="51.8455917668" lon="-2.1045704931"><ele>262.58</ele><time>2017-02-15T10:41:17Z</time></trkpt><trkpt lat="51.8456853088" lon="-2.1044121590"><ele>262.58</ele><time>2017-02-15T10:41:33Z</time></trkpt><trkpt lat="51.8457848858" lon="-2.1042697504"><ele>261.14</ele><time>2017-02-15T10:41:52Z</time></trkpt><trkpt lat="51.8458552938" lon="-2.1041483805"><ele>259.69</ele><time>2017-02-15T10:42:09Z</time></trkpt><trkpt lat="51.8458640110" lon="-2.1040997654"><ele>258.73</ele><time>2017-02-15T10:42:27Z</time></trkpt><trkpt lat="51.8459872250" lon="-2.1039395034"><ele>258.73</ele><time>2017-02-15T10:42:44Z</time></trkpt><trkpt lat="51.8461274542" lon="-2.1039083228"><ele>257.29</ele><time>2017-02-15T10:43:03Z</time></trkpt><trkpt lat="51.8461844511" lon="-2.1038781479"><ele>256.81</ele><time>2017-02-15T10:43:16Z</time></trkpt><trkpt lat="51.8462985288" lon="-2.1039199736"><ele>254.89</ele><time>2017-02-15T10:43:34Z</time></trkpt><trkpt lat="51.8463455513" lon="-2.1040222328"><ele>253.93</ele><time>2017-02-15T10:43:49Z</time></trkpt><trkpt lat="51.8464133609" lon="-2.1040182933"><ele>253.44</ele><time>2017-02-15T10:44:05Z</time></trkpt><trkpt lat="51.8464247603" lon="-2.1040023677"><ele>252.96</ele><time>2017-02-15T10:44:22Z</time></trkpt><trkpt lat="51.8464384228" lon="-2.1039700974"><ele>252.48</ele><time>2017-02-15T10:44:25Z</time></trkpt><trkpt lat="51.8465816695" lon="-2.1038108412"><ele>252.96</ele><time>2017-02-15T10:44:42Z</time></trkpt><trkpt lat="51.8466959987" lon="-2.1037216578"><ele>253.44</ele><time>2017-02-15T10:44:58Z</time></trkpt><trkpt lat="51.8468210567" lon="-2.1035925765"><ele>252.96</ele><time>2017-02-15T10:45:13Z</time></trkpt><trkpt lat="51.8469074741" lon="-2.1034691948"><ele>253.44</ele><time>2017-02-15T10:45:28Z</time></trkpt><trkpt lat="51.8469653931" lon="-2.1033821069"><ele>253.93</ele><time>2017-02-15T10:45:41Z</time></trkpt><trkpt lat="51.8469654769" lon="-2.1033808496"><ele>253.93</ele><time>2017-02-15T10:46:01Z</time></trkpt><trkpt lat="51.8469535746" lon="-2.1033589728"><ele>253.93</ele><time>2017-02-15T10:46:29Z</time></trkpt><trkpt lat="51.8469731882" lon="-2.1033116989"><ele>254.41</ele><time>2017-02-15T10:46:33Z</time></trkpt><trkpt lat="51.8470144272" lon="-2.1032034047"><ele>255.85</ele><time>2017-02-15T10:46:49Z</time></trkpt><trkpt lat="51.8470844161" lon="-2.1030610800"><ele>255.37</ele><time>2017-02-15T10:47:00Z</time></trkpt><trkpt lat="51.8471451011" lon="-2.1029645205"><ele>255.37</ele><time>2017-02-15T10:47:06Z</time></trkpt><trkpt lat="51.8471851666" lon="-2.1028949507"><ele>255.85</ele><time>2017-02-15T10:47:11Z</time></trkpt><trkpt lat="51.8472526409" lon="-2.1026247181"><ele>258.25</ele><time>2017-02-15T10:47:26Z</time></trkpt><trkpt lat="51.8472634535" lon="-2.1024827287"><ele>260.65</ele><time>2017-02-15T10:47:35Z</time></trkpt><trkpt lat="51.8472755235" lon="-2.1024562418"><ele>260.65</ele><time>2017-02-15T10:47:37Z</time></trkpt><trkpt lat="51.8472836539" lon="-2.1023772843"><ele>261.14</ele><time>2017-02-15T10:47:42Z</time></trkpt><trkpt lat="51.8472872581" lon="-2.1023387276"><ele>261.62</ele><time>2017-02-15T10:47:44Z</time></trkpt><trkpt lat="51.8473375496" lon="-2.1020461991"><ele>262.58</ele><time>2017-02-15T10:48:00Z</time></trkpt><trkpt lat="51.8473439198" lon="-2.1018195525"><ele>264.50</ele><time>2017-02-15T10:48:14Z</time></trkpt><trkpt lat="51.8473679759" lon="-2.1017746255"><ele>263.54</ele><time>2017-02-15T10:48:27Z</time></trkpt><trkpt lat="51.8473972287" lon="-2.1015961748"><ele>264.98</ele><time>2017-02-15T10:48:40Z</time></trkpt><trkpt lat="51.8474242184" lon="-2.1015582047"><ele>265.94</ele><time>2017-02-15T10:48:57Z</time></trkpt><trkpt lat="51.8475404754" lon="-2.1013685223"><ele>264.98</ele><time>2017-02-15T10:49:14Z</time></trkpt><trkpt lat="51.8475566525" lon="-2.1012263652"><ele>265.46</ele><time>2017-02-15T10:49:26Z</time></trkpt><trkpt lat="51.8475786131" lon="-2.1011347510"><ele>265.46</ele><time>2017-02-15T10:49:40Z</time></trkpt><trkpt lat="51.8475945387" lon="-2.1010662708"><ele>265.46</ele><time>2017-02-15T10:49:58Z</time></trkpt><trkpt lat="51.8476224504" lon="-2.1009278856"><ele>263.54</ele><time>2017-02-15T10:50:14Z</time></trkpt><trkpt lat="51.8477006536" lon="-2.1008160710"><ele>262.10</ele><time>2017-02-15T10:50:36Z</time></trkpt><trkpt lat="51.8477791082" lon="-2.1007162426"><ele>262.10</ele><time>2017-02-15T10:50:54Z</time></trkpt><trkpt lat="51.8478323333" lon="-2.1006587427"><ele>263.06</ele><time>2017-02-15T10:51:10Z</time></trkpt><trkpt lat="51.8478768412" lon="-2.1006143186"><ele>261.14</ele><time>2017-02-15T10:51:31Z</time></trkpt><trkpt lat="51.8479114585" lon="-2.1005547233"><ele>260.65</ele><time>2017-02-15T10:51:52Z</time></trkpt><trkpt lat="51.8479304854" lon="-2.1005298290"><ele>259.69</ele><time>2017-02-15T10:51:55Z</time></trkpt><trkpt lat="51.8481224310" lon="-2.1003280766"><ele>257.77</ele><time>2017-02-15T10:52:12Z</time></trkpt><trkpt lat="51.8481701240" lon="-2.1002875920"><ele>256.81</ele><time>2017-02-15T10:52:29Z</time></trkpt><trkpt lat="51.8482138775" lon="-2.1002334449"><ele>256.33</ele><time>2017-02-15T10:52:50Z</time></trkpt><trkpt lat="51.8482489139" lon="-2.1002000850"><ele>255.37</ele><time>2017-02-15T10:53:09Z</time></trkpt><trkpt lat="51.8482862972" lon="-2.1001637913"><ele>255.37</ele><time>2017-02-15T10:53:34Z</time></trkpt><trkpt lat="51.8483911548" lon="-2.1000300162"><ele>253.93</ele><time>2017-02-15T10:53:55Z</time></trkpt><trkpt lat="51.8485442922" lon="-2.0999221411"><ele>253.44</ele><time>2017-02-15T10:54:12Z</time></trkpt><trkpt lat="51.8486290332" lon="-2.0998736098"><ele>252.48</ele><time>2017-02-15T10:54:28Z</time></trkpt><trkpt lat="51.8487007823" lon="-2.0998088177"><ele>252.96</ele><time>2017-02-15T10:54:49Z</time></trkpt><trkpt lat="51.8488114234" lon="-2.0997492224"><ele>252.48</ele><time>2017-02-15T10:55:11Z</time></trkpt><trkpt lat="51.8488896266" lon="-2.0996415988"><ele>251.52</ele><time>2017-02-15T10:55:29Z</time></trkpt><trkpt lat="51.8489712663" lon="-2.0995600428"><ele>250.56</ele><time>2017-02-15T10:55:49Z</time></trkpt><trkpt lat="51.8489818275" lon="-2.0995319635"><ele>250.08</ele><time>2017-02-15T10:56:06Z</time></trkpt><trkpt lat="51.8491006829" lon="-2.0994371641"><ele>249.60</ele><time>2017-02-15T10:56:26Z</time></trkpt><trkpt lat="51.8492047861" lon="-2.0993291214"><ele>248.16</ele><time>2017-02-15T10:56:44Z</time></trkpt><trkpt lat="51.8492461089" lon="-2.0992577914"><ele>247.68</ele><time>2017-02-15T10:57:01Z</time></trkpt><trkpt lat="51.8492684886" lon="-2.0992240962"><ele>245.75</ele><time>2017-02-15T10:57:22Z</time></trkpt><trkpt lat="51.8493589293" lon="-2.0991201606"><ele>245.27</ele><time>2017-02-15T10:57:39Z</time></trkpt><trkpt lat="51.8494901899" lon="-2.0989894867"><ele>245.27</ele><time>2017-02-15T10:57:55Z</time></trkpt><trkpt lat="51.8495541438" lon="-2.0989055000"><ele>244.79</ele><time>2017-02-15T10:58:14Z</time></trkpt><trkpt lat="51.8496781960" lon="-2.0988627523"><ele>244.79</ele><time>2017-02-15T10:58:35Z</time></trkpt><trkpt lat="51.8497071136" lon="-2.0988529455"><ele>244.31</ele><time>2017-02-15T10:58:51Z</time></trkpt><trkpt lat="51.8497309182" lon="-2.0988601539"><ele>244.31</ele><time>2017-02-15T10:59:10Z</time></trkpt><trkpt lat="51.8497181777" lon="-2.0988292247"><ele>244.31</ele><time>2017-02-15T10:59:32Z</time></trkpt><trkpt lat="51.8497538846" lon="-2.0987845492"><ele>243.83</ele><time>2017-02-15T10:59:50Z</time></trkpt><trkpt lat="51.8498499412" lon="-2.0987324975"><ele>243.83</ele><time>2017-02-15T11:00:15Z</time></trkpt><trkpt lat="51.8498881627" lon="-2.0987071842"><ele>243.83</ele><time>2017-02-15T11:00:34Z</time></trkpt><trkpt lat="51.8498969637" lon="-2.0986905042"><ele>243.35</ele><time>2017-02-15T11:00:54Z</time></trkpt><trkpt lat="51.8498980533" lon="-2.0986884926"><ele>243.35</ele><time>2017-02-15T11:01:13Z</time></trkpt><trkpt lat="51.8499055132" lon="-2.0986770093"><ele>243.83</ele><time>2017-02-15T11:01:39Z</time></trkpt><trkpt lat="51.8499115482" lon="-2.0986701362"><ele>243.35</ele><time>2017-02-15T11:02:06Z</time></trkpt><trkpt lat="51.8499174993" lon="-2.0986567251"><ele>243.35</ele><time>2017-02-15T11:02:32Z</time></trkpt><trkpt lat="51.8499203492" lon="-2.0986521151"><ele>242.87</ele><time>2017-02-15T11:02:57Z</time></trkpt><trkpt lat="51.8499267194" lon="-2.0986456610"><ele>243.35</ele><time>2017-02-15T11:03:21Z</time></trkpt><trkpt lat="51.8499344308" lon="-2.0986391231"><ele>243.35</ele><time>2017-02-15T11:03:50Z</time></trkpt><trkpt lat="51.8499475066" lon="-2.0986376982"><ele>243.83</ele><time>2017-02-15T11:04:11Z</time></trkpt><trkpt lat="51.8499462493" lon="-2.0986364409"><ele>243.35</ele><time>2017-02-15T11:04:35Z</time></trkpt><trkpt lat="51.8499417230" lon="-2.0986382850"><ele>239.51</ele><time>2017-02-15T11:04:47Z</time></trkpt><trkpt lat="51.8499403819" lon="-2.0986387040"><ele>243.83</ele><time>2017-02-15T11:04:48Z</time></trkpt><trkpt lat="51.8499377836" lon="-2.0986367762"><ele>242.87</ele><time>2017-02-15T11:05:11Z</time></trkpt><trkpt lat="51.8499309104" lon="-2.0986356866"><ele>243.35</ele><time>2017-02-15T11:05:38Z</time></trkpt><trkpt lat="51.8499281444" lon="-2.0986356866"><ele>242.87</ele><time>2017-02-15T11:06:01Z</time></trkpt><trkpt lat="51.8499283120" lon="-2.0986317471"><ele>243.83</ele><time>2017-02-15T11:06:27Z</time></trkpt><trkpt lat="51.8499313295" lon="-2.0986278914"><ele>243.83</ele><time>2017-02-15T11:06:55Z</time></trkpt><trkpt lat="51.8499317486" lon="-2.0986282267"><ele>243.83</ele><time>2017-02-15T11:07:19Z</time></trkpt><trkpt lat="51.8499274738" lon="-2.0986165758"><ele>243.83</ele><time>2017-02-15T11:07:49Z</time></trkpt><trkpt lat="51.8499247916" lon="-2.0985901728"><ele>243.83</ele><time>2017-02-15T11:08:15Z</time></trkpt><trkpt lat="51.8499169964" lon="-2.0985776000"><ele>244.31</ele><time>2017-02-15T11:08:34Z</time></trkpt><trkpt lat="51.8499308266" lon="-2.0985957887"><ele>243.83</ele><time>2017-02-15T11:09:04Z</time></trkpt><trkpt lat="51.8499247916" lon="-2.0985944476"><ele>243.83</ele><time>2017-02-15T11:09:33Z</time></trkpt><trkpt lat="51.8499227799" lon="-2.0985983033"><ele>243.83</ele><time>2017-02-15T11:10:04Z</time></trkpt><trkpt lat="51.8499226961" lon="-2.0985996444"><ele>243.35</ele><time>2017-02-15T11:10:25Z</time></trkpt><trkpt lat="51.8499393761" lon="-2.0986208506"><ele>243.35</ele><time>2017-02-15T11:10:46Z</time></trkpt><trkpt lat="51.8499501888" lon="-2.0986164920"><ele>244.31</ele><time>2017-02-15T11:11:04Z</time></trkpt><trkpt lat="51.8500004802" lon="-2.0985394623"><ele>243.83</ele><time>2017-02-15T11:11:24Z</time></trkpt><trkpt lat="51.8501587305" lon="-2.0983716566"><ele>242.87</ele><time>2017-02-15T11:11:40Z</time></trkpt><trkpt lat="51.8503020611" lon="-2.0982323494"><ele>242.87</ele><time>2017-02-15T11:11:56Z</time></trkpt><trkpt lat="51.8503688648" lon="-2.0981522184"><ele>241.43</ele><time>2017-02-15T11:12:14Z</time></trkpt><trkpt lat="51.8503973633" lon="-2.0980256516"><ele>240.95</ele><time>2017-02-15T11:12:30Z</time></trkpt><trkpt lat="51.8504184857" lon="-2.0978904516"><ele>240.95</ele><time>2017-02-15T11:12:45Z</time></trkpt><trkpt lat="51.8504722137" lon="-2.0978285931"><ele>239.02</ele><time>2017-02-15T11:13:02Z</time></trkpt><trkpt lat="51.8504819367" lon="-2.0978148468"><ele>239.02</ele><time>2017-02-15T11:13:22Z</time></trkpt><trkpt lat="51.8505146261" lon="-2.0977817383"><ele>236.62</ele><time>2017-02-15T11:13:39Z</time></trkpt><trkpt lat="51.8505823519" lon="-2.0977094863"><ele>236.62</ele><time>2017-02-15T11:13:56Z</time></trkpt><trkpt lat="51.8507036380" lon="-2.0975322090"><ele>234.22</ele><time>2017-02-15T11:14:15Z</time></trkpt><trkpt lat="51.8507795781" lon="-2.0974842645"><ele>233.74</ele><time>2017-02-15T11:14:30Z</time></trkpt><trkpt lat="51.8508351501" lon="-2.0973711088"><ele>231.33</ele><time>2017-02-15T11:14:45Z</time></trkpt><trkpt lat="51.8509430252" lon="-2.0972322207"><ele>230.85</ele><time>2017-02-15T11:15:01Z</time></trkpt><trkpt lat="51.8510083202" lon="-2.0971694402"><ele>232.30</ele><time>2017-02-15T11:15:12Z</time></trkpt><trkpt lat="51.8511072267" lon="-2.0970910694"><ele>234.70</ele><time>2017-02-15T11:15:25Z</time></trkpt><trkpt lat="51.8512049597" lon="-2.0970233437"><ele>235.66</ele><time>2017-02-15T11:15:39Z</time></trkpt><trkpt lat="51.8513270840" lon="-2.0969981141"><ele>236.62</ele><time>2017-02-15T11:15:54Z</time></trkpt><trkpt lat="51.8514678162" lon="-2.0969909895"><ele>237.10</ele><time>2017-02-15T11:16:11Z</time></trkpt><trkpt lat="51.8515821453" lon="-2.0969871338"><ele>239.51</ele><time>2017-02-15T11:16:26Z</time></trkpt><trkpt lat="51.8516635336" lon="-2.0970174763"><ele>240.95</ele><time>2017-02-15T11:16:45Z</time></trkpt><trkpt lat="51.8516740948" lon="-2.0970261935"><ele>242.39</ele><time>2017-02-15T11:17:04Z</time></trkpt><trkpt lat="51.8517179321" lon="-2.0970442984"><ele>242.39</ele><time>2017-02-15T11:17:19Z</time></trkpt><trkpt lat="51.8518305011" lon="-2.0970828552"><ele>242.39</ele><time>2017-02-15T11:17:33Z</time></trkpt><trkpt lat="51.8519026693" lon="-2.0971092582"><ele>242.87</ele><time>2017-02-15T11:17:55Z</time></trkpt><trkpt lat="51.8519320898" lon="-2.0971086714"><ele>242.87</ele><time>2017-02-15T11:18:20Z</time></trkpt><trkpt lat="51.8519521225" lon="-2.0971080009"><ele>242.87</ele><time>2017-02-15T11:18:43Z</time></trkpt><trkpt lat="51.8519525416" lon="-2.0971185621"><ele>243.35</ele><time>2017-02-15T11:19:07Z</time></trkpt><trkpt lat="51.8519484345" lon="-2.0970941707"><ele>242.87</ele><time>2017-02-15T11:19:30Z</time></trkpt><trkpt lat="51.8519211095" lon="-2.0968800969"><ele>244.31</ele><time>2017-02-15T11:19:46Z</time></trkpt><trkpt lat="51.8519321736" lon="-2.0967761613"><ele>243.83</ele><time>2017-02-15T11:20:03Z</time></trkpt><trkpt lat="51.8519128114" lon="-2.0965391211"><ele>245.27</ele><time>2017-02-15T11:20:24Z</time></trkpt><trkpt lat="51.8519092072" lon="-2.0963482652"><ele>247.20</ele><time>2017-02-15T11:20:45Z</time></trkpt><trkpt lat="51.8519886676" lon="-2.0961320959"><ele>248.64</ele><time>2017-02-15T11:21:03Z</time></trkpt><trkpt lat="51.8520379532" lon="-2.0961398073"><ele>249.12</ele><time>2017-02-15T11:21:27Z</time></trkpt><trkpt lat="51.8520497717" lon="-2.0961574093"><ele>249.60</ele><time>2017-02-15T11:21:44Z</time></trkpt><trkpt lat="51.8521944433" lon="-2.0957504679"><ele>250.08</ele><time>2017-02-15T11:22:03Z</time></trkpt><trkpt lat="51.8522987142" lon="-2.0957114082"><ele>251.52</ele><time>2017-02-15T11:22:18Z</time></trkpt><trkpt lat="51.8522934336" lon="-2.0957009308"><ele>251.04</ele><time>2017-02-15T11:22:44Z</time></trkpt><trkpt lat="51.8523568008" lon="-2.0954491384"><ele>252.48</ele><time>2017-02-15T11:22:59Z</time></trkpt><trkpt lat="51.8523791805" lon="-2.0953255054"><ele>252.48</ele><time>2017-02-15T11:23:05Z</time></trkpt><trkpt lat="51.8524762429" lon="-2.0951680094"><ele>253.93</ele><time>2017-02-15T11:23:22Z</time></trkpt><trkpt lat="51.8525349163" lon="-2.0948578790"><ele>252.96</ele><time>2017-02-15T11:23:40Z</time></trkpt><trkpt lat="51.8524966110" lon="-2.0948106050"><ele>252.00</ele><time>2017-02-15T11:23:55Z</time></trkpt><trkpt lat="51.8524432182" lon="-2.0947629120"><ele>251.04</ele><time>2017-02-15T11:24:11Z</time></trkpt><trkpt lat="51.8523898255" lon="-2.0947367605"><ele>251.04</ele><time>2017-02-15T11:24:16Z</time></trkpt><trkpt lat="51.8522666954" lon="-2.0946681965"><ele>250.08</ele><time>2017-02-15T11:24:36Z</time></trkpt><trkpt lat="51.8521305732" lon="-2.0946101099"><ele>249.12</ele><time>2017-02-15T11:24:52Z</time></trkpt><trkpt lat="51.8520438205" lon="-2.0945621654"><ele>248.16</ele><time>2017-02-15T11:25:05Z</time></trkpt><trkpt lat="51.8518968858" lon="-2.0944929309"><ele>246.72</ele><time>2017-02-15T11:25:24Z</time></trkpt><trkpt lat="51.8517631944" lon="-2.0944233611"><ele>246.23</ele><time>2017-02-15T11:25:42Z</time></trkpt><trkpt lat="51.8516392261" lon="-2.0943671186"><ele>245.75</ele><time>2017-02-15T11:26:03Z</time></trkpt><trkpt lat="51.8515178561" lon="-2.0943175815"><ele>245.27</ele><time>2017-02-15T11:26:22Z</time></trkpt><trkpt lat="51.8513925467" lon="-2.0942471735"><ele>243.83</ele><time>2017-02-15T11:26:39Z</time></trkpt><trkpt lat="51.8513062969" lon="-2.0942004863"><ele>244.31</ele><time>2017-02-15T11:26:51Z</time></trkpt><trkpt lat="51.8511363119" lon="-2.0941104647"><ele>242.87</ele><time>2017-02-15T11:27:11Z</time></trkpt><trkpt lat="51.8509848509" lon="-2.0940198563"><ele>242.87</ele><time>2017-02-15T11:27:31Z</time></trkpt><trkpt lat="51.8508097529" lon="-2.0939320978"><ele>241.43</ele><time>2017-02-15T11:27:51Z</time></trkpt><trkpt lat="51.8506389298" lon="-2.0938389748"><ele>239.51</ele><time>2017-02-15T11:28:09Z</time></trkpt><trkpt lat="51.8505416159" lon="-2.0937866718"><ele>238.06</ele><time>2017-02-15T11:28:25Z</time></trkpt><trkpt lat="51.8504754826" lon="-2.0937516354"><ele>239.51</ele><time>2017-02-15T11:28:33Z</time></trkpt><trkpt lat="51.8503308110" lon="-2.0936850831"><ele>238.06</ele><time>2017-02-15T11:28:51Z</time></trkpt><trkpt lat="51.8501878157" lon="-2.0936055388"><ele>237.10</ele><time>2017-02-15T11:29:09Z</time></trkpt><trkpt lat="51.8500437308" lon="-2.0935245696"><ele>235.66</ele><time>2017-02-15T11:29:26Z</time></trkpt><trkpt lat="51.8499081116" lon="-2.0934485458"><ele>235.18</ele><time>2017-02-15T11:29:42Z</time></trkpt><trkpt lat="51.8497418147" lon="-2.0933622122"><ele>233.74</ele><time>2017-02-15T11:30:01Z</time></trkpt><trkpt lat="51.8495726679" lon="-2.0932827517"><ele>232.30</ele><time>2017-02-15T11:30:20Z</time></trkpt><trkpt lat="51.8494462688" lon="-2.0932057220"><ele>231.81</ele><time>2017-02-15T11:30:38Z</time></trkpt><trkpt lat="51.8493561633" lon="-2.0931393374"><ele>230.85</ele><time>2017-02-15T11:30:55Z</time></trkpt><trkpt lat="51.8491639663" lon="-2.0930225775"><ele>229.89</ele><time>2017-02-15T11:31:15Z</time></trkpt><trkpt lat="51.8491057120" lon="-2.0929760579"><ele>229.89</ele><time>2017-02-15T11:31:23Z</time></trkpt><trkpt lat="51.8490817398" lon="-2.0929679275"><ele>233.26</ele><time>2017-02-15T11:31:25Z</time></trkpt><trkpt lat="51.8490708433" lon="-2.0929622278"><ele>229.89</ele><time>2017-02-15T11:31:26Z</time></trkpt><trkpt lat="51.8489880301" lon="-2.0928998664"><ele>229.41</ele><time>2017-02-15T11:31:40Z</time></trkpt><trkpt lat="51.8488475494" lon="-2.0927696116"><ele>227.97</ele><time>2017-02-15T11:31:59Z</time></trkpt><trkpt lat="51.8487022910" lon="-2.0926749799"><ele>227.01</ele><time>2017-02-15T11:32:18Z</time></trkpt><trkpt lat="51.8485940807" lon="-2.0925995428"><ele>226.53</ele><time>2017-02-15T11:32:39Z</time></trkpt><trkpt lat="51.8485601339" lon="-2.0926644187"><ele>226.53</ele><time>2017-02-15T11:33:01Z</time></trkpt><trkpt lat="51.8485129438" lon="-2.0928038098"><ele>226.05</ele><time>2017-02-15T11:33:19Z</time></trkpt><trkpt lat="51.8482868839" lon="-2.0930775627"><ele>227.01</ele><time>2017-02-15T11:33:37Z</time></trkpt><trkpt lat="51.8482455611" lon="-2.0931006130"><ele>227.97</ele><time>2017-02-15T11:33:39Z</time></trkpt><trkpt lat="51.8480048329" lon="-2.0933629666"><ele>229.89</ele><time>2017-02-15T11:33:59Z</time></trkpt><trkpt lat="51.8479504343" lon="-2.0934862643"><ele>229.89</ele><time>2017-02-15T11:34:18Z</time></trkpt><trkpt lat="51.8478599098" lon="-2.0936322771"><ele>231.33</ele><time>2017-02-15T11:34:41Z</time></trkpt><trkpt lat="51.8477449100" lon="-2.0939128194"><ele>234.22</ele><time>2017-02-15T11:35:02Z</time></trkpt><trkpt lat="51.8477350194" lon="-2.0939738397"><ele>233.26</ele><time>2017-02-15T11:35:23Z</time></trkpt><trkpt lat="51.8476019986" lon="-2.0942091197"><ele>234.22</ele><time>2017-02-15T11:35:45Z</time></trkpt><trkpt lat="51.8474987336" lon="-2.0944600739"><ele>236.14</ele><time>2017-02-15T11:36:07Z</time></trkpt><trkpt lat="51.8474631105" lon="-2.0944994688"><ele>235.18</ele><time>2017-02-15T11:36:29Z</time></trkpt><trkpt lat="51.8474463467" lon="-2.0945485029"><ele>235.18</ele><time>2017-02-15T11:36:50Z</time></trkpt><trkpt lat="51.8475735001" lon="-2.0946759079"><ele>236.62</ele><time>2017-02-15T11:37:13Z</time></trkpt><trkpt lat="51.8477280624" lon="-2.0948365051"><ele>236.14</ele><time>2017-02-15T11:37:36Z</time></trkpt><trkpt lat="51.8478977121" lon="-2.0950395986"><ele>237.58</ele><time>2017-02-15T11:37:59Z</time></trkpt><trkpt lat="51.8479371909" lon="-2.0951639023"><ele>238.06</ele><time>2017-02-15T11:38:21Z</time></trkpt><trkpt lat="51.8481122050" lon="-2.0953589492"><ele>238.54</ele><time>2017-02-15T11:38:45Z</time></trkpt><trkpt lat="51.8481844570" lon="-2.0955872722"><ele>239.02</ele><time>2017-02-15T11:39:04Z</time></trkpt><trkpt lat="51.8484159652" lon="-2.0957425889"><ele>239.51</ele><time>2017-02-15T11:39:25Z</time></trkpt><trkpt lat="51.8485401012" lon="-2.0959816407"><ele>240.47</ele><time>2017-02-15T11:39:46Z</time></trkpt><trkpt lat="51.8486426957" lon="-2.0961611811"><ele>242.39</ele><time>2017-02-15T11:40:07Z</time></trkpt><trkpt lat="51.8487225752" lon="-2.0962737501"><ele>243.35</ele><time>2017-02-15T11:40:27Z</time></trkpt><trkpt lat="51.8488191348" lon="-2.0964199305"><ele>243.83</ele><time>2017-02-15T11:40:48Z</time></trkpt><trkpt lat="51.8489803188" lon="-2.0965618361"><ele>243.83</ele><time>2017-02-15T11:41:05Z</time></trkpt><trkpt lat="51.8490415905" lon="-2.0966671966"><ele>243.35</ele><time>2017-02-15T11:41:23Z</time></trkpt><trkpt lat="51.8491187040" lon="-2.0967840403"><ele>244.79</ele><time>2017-02-15T11:41:42Z</time></trkpt><trkpt lat="51.8491700850" lon="-2.0968487486"><ele>243.35</ele><time>2017-02-15T11:41:52Z</time></trkpt><trkpt lat="51.8494571652" lon="-2.0971664228"><ele>244.79</ele><time>2017-02-15T11:42:11Z</time></trkpt><trkpt lat="51.8495378830" lon="-2.0972587075"><ele>244.31</ele><time>2017-02-15T11:42:32Z</time></trkpt><trkpt lat="51.8495838158" lon="-2.0974848513"><ele>244.31</ele><time>2017-02-15T11:42:50Z</time></trkpt><trkpt lat="51.8495467678" lon="-2.0975657366"><ele>246.72</ele><time>2017-02-15T11:43:09Z</time></trkpt><trkpt lat="51.8495935388" lon="-2.0977459475"><ele>246.72</ele><time>2017-02-15T11:43:23Z</time></trkpt><trkpt lat="51.8496350292" lon="-2.0979262423"><ele>245.75</ele><time>2017-02-15T11:43:41Z</time></trkpt><trkpt lat="51.8496089615" lon="-2.0980256516"><ele>246.23</ele><time>2017-02-15T11:43:58Z</time></trkpt><trkpt lat="51.8495393917" lon="-2.0980875939"><ele>247.20</ele><time>2017-02-15T11:44:14Z</time></trkpt><trkpt lat="51.8495201133" lon="-2.0981015079"><ele>247.68</ele><time>2017-02-15T11:44:35Z</time></trkpt><trkpt lat="51.8494046107" lon="-2.0981722511"><ele>247.68</ele><time>2017-02-15T11:44:56Z</time></trkpt><trkpt lat="51.8492303509" lon="-2.0983315073"><ele>249.12</ele><time>2017-02-15T11:45:15Z</time></trkpt><trkpt lat="51.8491121661" lon="-2.0983896777"><ele>249.60</ele><time>2017-02-15T11:45:31Z</time></trkpt><trkpt lat="51.8490371481" lon="-2.0984387957"><ele>250.08</ele><time>2017-02-15T11:45:50Z</time></trkpt><trkpt lat="51.8489001878" lon="-2.0985430665"><ele>252.96</ele><time>2017-02-15T11:46:04Z</time></trkpt><trkpt lat="51.8488361500" lon="-2.0986124687"><ele>253.93</ele><time>2017-02-15T11:46:19Z</time></trkpt><trkpt lat="51.8487188872" lon="-2.0987584814"><ele>255.37</ele><time>2017-02-15T11:46:35Z</time></trkpt><trkpt lat="51.8486232497" lon="-2.0988673624"><ele>256.81</ele><time>2017-02-15T11:46:54Z</time></trkpt><trkpt lat="51.8485863693" lon="-2.0989557914"><ele>256.81</ele><time>2017-02-15T11:47:12Z</time></trkpt><trkpt lat="51.8484113552" lon="-2.0991232619"><ele>257.29</ele><time>2017-02-15T11:47:27Z</time></trkpt><trkpt lat="51.8483053241" lon="-2.0992396865"><ele>258.25</ele><time>2017-02-15T11:47:44Z</time></trkpt><trkpt lat="51.8481751531" lon="-2.0994121861"><ele>258.73</ele><time>2017-02-15T11:48:02Z</time></trkpt><trkpt lat="51.8480768334" lon="-2.0996286068"><ele>260.17</ele><time>2017-02-15T11:48:23Z</time></trkpt><trkpt lat="51.8479932658" lon="-2.0997795649"><ele>260.65</ele><time>2017-02-15T11:48:40Z</time></trkpt><trkpt lat="51.8479694612" lon="-2.0998021122"><ele>261.62</ele><time>2017-02-15T11:49:02Z</time></trkpt><trkpt lat="51.8478723150" lon="-2.0999163575"><ele>262.10</ele><time>2017-02-15T11:49:18Z</time></trkpt><trkpt lat="51.8478330877" lon="-2.1000108216"><ele>263.54</ele><time>2017-02-15T11:49:36Z</time></trkpt><trkpt lat="51.8478186708" lon="-2.1000675671"><ele>263.54</ele><time>2017-02-15T11:49:57Z</time></trkpt><trkpt lat="51.8476741668" lon="-2.1002699062"><ele>264.98</ele><time>2017-02-15T11:50:16Z</time></trkpt><trkpt lat="51.8475783616" lon="-2.1003784519"><ele>265.46</ele><time>2017-02-15T11:50:33Z</time></trkpt><trkpt lat="51.8474445026" lon="-2.1005448326"><ele>266.90</ele><time>2017-02-15T11:50:47Z</time></trkpt><trkpt lat="51.8474119809" lon="-2.1006001532"><ele>267.38</ele><time>2017-02-15T11:51:03Z</time></trkpt><trkpt lat="51.8473051954" lon="-2.1007029153"><ele>268.35</ele><time>2017-02-15T11:51:19Z</time></trkpt><trkpt lat="51.8472552393" lon="-2.1007371135"><ele>269.79</ele><time>2017-02-15T11:51:37Z</time></trkpt><trkpt lat="51.8470980786" lon="-2.1008350141"><ele>270.27</ele><time>2017-02-15T11:51:53Z</time></trkpt><trkpt lat="51.8469680753" lon="-2.1009051707"><ele>270.75</ele><time>2017-02-15T11:52:11Z</time></trkpt><trkpt lat="51.8468778860" lon="-2.1010061726"><ele>271.23</ele><time>2017-02-15T11:52:32Z</time></trkpt><trkpt lat="51.8467731960" lon="-2.1010578051"><ele>271.71</ele><time>2017-02-15T11:52:50Z</time></trkpt><trkpt lat="51.8465862796" lon="-2.1012234315"><ele>272.67</ele><time>2017-02-15T11:53:06Z</time></trkpt><trkpt lat="51.8465670012" lon="-2.1012717113"><ele>272.67</ele><time>2017-02-15T11:53:30Z</time></trkpt><trkpt lat="51.8464955874" lon="-2.1014827676"><ele>272.19</ele><time>2017-02-15T11:53:52Z</time></trkpt><trkpt lat="51.8465583678" lon="-2.1017626394"><ele>272.67</ele><time>2017-02-15T11:54:09Z</time></trkpt><trkpt lat="51.8464740459" lon="-2.1019627992"><ele>273.15</ele><time>2017-02-15T11:54:26Z</time></trkpt><trkpt lat="51.8464667536" lon="-2.1020441875"><ele>273.15</ele><time>2017-02-15T11:54:47Z</time></trkpt><trkpt lat="51.8463737983" lon="-2.1023076307"><ele>272.67</ele><time>2017-02-15T11:55:06Z</time></trkpt><trkpt lat="51.8463256024" lon="-2.1023778711"><ele>272.19</ele><time>2017-02-15T11:55:25Z</time></trkpt><trkpt lat="51.8461650051" lon="-2.1024867520"><ele>272.67</ele><time>2017-02-15T11:55:43Z</time></trkpt><trkpt lat="51.8460298888" lon="-2.1025782824"><ele>272.67</ele><time>2017-02-15T11:56:01Z</time></trkpt><trkpt lat="51.8458737340" lon="-2.1026590839"><ele>271.71</ele><time>2017-02-15T11:56:19Z</time></trkpt><trkpt lat="51.8457107898" lon="-2.1027537156"><ele>270.75</ele><time>2017-02-15T11:56:37Z</time></trkpt><trkpt lat="51.8455667887" lon="-2.1028838027"><ele>270.75</ele><time>2017-02-15T11:56:54Z</time></trkpt><trkpt lat="51.8454094604" lon="-2.1029619221"><ele>269.31</ele><time>2017-02-15T11:57:13Z</time></trkpt><trkpt lat="51.8453353643" lon="-2.1029763389"><ele>269.31</ele><time>2017-02-15T11:57:31Z</time></trkpt><trkpt lat="51.8453005794" lon="-2.1029781830"><ele>269.31</ele><time>2017-02-15T11:57:48Z</time></trkpt><trkpt lat="51.8452796247" lon="-2.1028024983"><ele>269.31</ele><time>2017-02-15T11:58:03Z</time></trkpt><trkpt lat="51.8452719133" lon="-2.1028469224"><ele>269.79</ele><time>2017-02-15T11:58:27Z</time></trkpt><trkpt lat="51.8452880066" lon="-2.1026840620"><ele>269.79</ele><time>2017-02-15T11:58:46Z</time></trkpt><trkpt lat="51.8452864978" lon="-2.1026845649"><ele>265.46</ele><time>2017-02-15T11:58:47Z</time></trkpt><trkpt lat="51.8452823069" lon="-2.1026854031"><ele>269.79</ele><time>2017-02-15T11:58:48Z</time></trkpt><trkpt lat="51.8452823069" lon="-2.1026443318"><ele>268.35</ele><time>2017-02-15T11:59:04Z</time></trkpt><trkpt lat="51.8453343585" lon="-2.1023868397"><ele>268.35</ele><time>2017-02-15T11:59:25Z</time></trkpt><trkpt lat="51.8453118950" lon="-2.1021976601"><ele>268.83</ele><time>2017-02-15T11:59:49Z</time></trkpt><trkpt lat="51.8453061115" lon="-2.1021467820"><ele>268.35</ele><time>2017-02-15T12:00:09Z</time></trkpt><trkpt lat="51.8452761043" lon="-2.1020712610"><ele>268.35</ele><time>2017-02-15T12:00:29Z</time></trkpt><trkpt lat="51.8452269863" lon="-2.1019703429"><ele>267.86</ele><time>2017-02-15T12:00:34Z</time></trkpt><trkpt lat="51.8451642897" lon="-2.1019187942"><ele>267.86</ele><time>2017-02-15T12:00:57Z</time></trkpt><trkpt lat="51.8452149164" lon="-2.1016929019"><ele>267.86</ele><time>2017-02-15T12:01:19Z</time></trkpt><trkpt lat="51.8451997451" lon="-2.1015231684"><ele>265.94</ele><time>2017-02-15T12:01:39Z</time></trkpt><trkpt lat="51.8451373838" lon="-2.1014116053"><ele>265.46</ele><time>2017-02-15T12:01:59Z</time></trkpt><trkpt lat="51.8449813128" lon="-2.1015074942"><ele>264.98</ele><time>2017-02-15T12:02:20Z</time></trkpt><trkpt lat="51.8449572567" lon="-2.1014831867"><ele>264.98</ele><time>2017-02-15T12:02:39Z</time></trkpt><trkpt lat="51.8450953066" lon="-2.1012095176"><ele>264.50</ele><time>2017-02-15T12:02:56Z</time></trkpt><trkpt lat="51.8450144213" lon="-2.1009184141"><ele>262.10</ele><time>2017-02-15T12:03:14Z</time></trkpt><trkpt lat="51.8449953105" lon="-2.1007791907"><ele>259.69</ele><time>2017-02-15T12:03:29Z</time></trkpt><trkpt lat="51.8449539039" lon="-2.1006799489"><ele>256.81</ele><time>2017-02-15T12:03:47Z</time></trkpt><trkpt lat="51.8448760360" lon="-2.1003191080"><ele>253.93</ele><time>2017-02-15T12:04:04Z</time></trkpt><trkpt lat="51.8448128365" lon="-2.1001140028"><ele>251.52</ele><time>2017-02-15T12:04:22Z</time></trkpt><trkpt lat="51.8447748665" lon="-2.0999719296"><ele>250.08</ele><time>2017-02-15T12:04:45Z</time></trkpt><trkpt lat="51.8447401654" lon="-2.0998530742"><ele>247.20</ele><time>2017-02-15T12:05:06Z</time></trkpt><trkpt lat="51.8446568493" lon="-2.0993347373"><ele>245.27</ele><time>2017-02-15T12:05:23Z</time></trkpt><trkpt lat="51.8446243275" lon="-2.0991396904"><ele>242.39</ele><time>2017-02-15T12:05:43Z</time></trkpt><trkpt lat="51.8445938174" lon="-2.0990659297"><ele>240.95</ele><time>2017-02-15T12:06:02Z</time></trkpt><trkpt lat="51.8445744552" lon="-2.0989055838"><ele>239.02</ele><time>2017-02-15T12:06:23Z</time></trkpt><trkpt lat="51.8444698490" lon="-2.0984506980"><ele>237.10</ele><time>2017-02-15T12:06:42Z</time></trkpt><trkpt lat="51.8444364890" lon="-2.0983201079"><ele>234.22</ele><time>2017-02-15T12:07:03Z</time></trkpt><trkpt lat="51.8444013689" lon="-2.0980656333"><ele>232.78</ele><time>2017-02-15T12:07:25Z</time></trkpt><trkpt lat="51.8443602975" lon="-2.0979316067"><ele>230.85</ele><time>2017-02-15T12:07:46Z</time></trkpt><trkpt lat="51.8442634866" lon="-2.0974893775"><ele>230.37</ele><time>2017-02-15T12:08:07Z</time></trkpt><trkpt lat="51.8441913184" lon="-2.0973027125"><ele>229.89</ele><time>2017-02-15T12:08:22Z</time></trkpt><trkpt lat="51.8441660050" lon="-2.0971690211"><ele>229.89</ele><time>2017-02-15T12:08:35Z</time></trkpt><trkpt lat="51.8441361655" lon="-2.0969677716"><ele>229.41</ele><time>2017-02-15T12:08:52Z</time></trkpt><trkpt lat="51.8441143725" lon="-2.0968940109"><ele>229.41</ele><time>2017-02-15T12:08:56Z</time></trkpt><trkpt lat="51.8440984469" lon="-2.0967909973"><ele>229.41</ele><time>2017-02-15T12:09:03Z</time></trkpt><trkpt lat="51.8440901488" lon="-2.0967575535"><ele>229.41</ele><time>2017-02-15T12:09:05Z</time></trkpt><trkpt lat="51.8439981155" lon="-2.0964719821"><ele>229.89</ele><time>2017-02-15T12:09:20Z</time></trkpt><trkpt lat="51.8439088482" lon="-2.0962933637"><ele>230.85</ele><time>2017-02-15T12:09:35Z</time></trkpt><trkpt lat="51.8438997120" lon="-2.0961873326"><ele>231.33</ele><time>2017-02-15T12:09:51Z</time></trkpt><trkpt lat="51.8437925074" lon="-2.0960709918"><ele>234.22</ele><time>2017-02-15T12:10:06Z</time></trkpt><trkpt lat="51.8437219318" lon="-2.0961136557"><ele>234.22</ele><time>2017-02-15T12:10:24Z</time></trkpt><trkpt lat="51.8436582293" lon="-2.0960426610"><ele>234.70</ele><time>2017-02-15T12:10:41Z</time></trkpt><trkpt lat="51.8436365202" lon="-2.0960555691"><ele>234.22</ele><time>2017-02-15T12:10:55Z</time></trkpt><trkpt lat="51.8435303215" lon="-2.0961905178"><ele>233.74</ele><time>2017-02-15T12:11:11Z</time></trkpt><trkpt lat="51.8434387073" lon="-2.0964002330"><ele>234.22</ele><time>2017-02-15T12:11:28Z</time></trkpt><trkpt lat="51.8434321694" lon="-2.0964123029"><ele>234.22</ele><time>2017-02-15T12:11:30Z</time></trkpt><trkpt lat="51.8433718197" lon="-2.0964449923"><ele>234.70</ele><time>2017-02-15T12:11:35Z</time></trkpt><trkpt lat="51.8432518747" lon="-2.0964812022"><ele>236.62</ele><time>2017-02-15T12:11:50Z</time></trkpt><trkpt lat="51.8432317581" lon="-2.0965156518"><ele>236.62</ele><time>2017-02-15T12:11:53Z</time></trkpt><trkpt lat="51.8431653734" lon="-2.0966657717"><ele>237.10</ele><time>2017-02-15T12:12:05Z</time></trkpt><trkpt lat="51.8431767728" lon="-2.0967578888"><ele>237.58</ele><time>2017-02-15T12:12:19Z</time></trkpt><trkpt lat="51.8431702349" lon="-2.0967774186"><ele>238.06</ele><time>2017-02-15T12:12:30Z</time></trkpt></trkseg></trk></gpx>